Time,TemperatureF,DewpointF,PressureIn,WindDirection,WindDirectionDegrees,WindSpeedMPH,WindSpeedGustMPH,Humidity,HourlyPrecipIn,Conditions,Clouds,dailyrainin,SoftwareType,DateUTC
2013-11-28 00:03:00,10.2,4.4,30.06,SSE,161,0.0,0.0,77,0.00,,,0.00,Wunderground v.1.15,2013-11-28 06:03:00,
2013-11-28 00:08:00,9.6,3.8,30.06,SSE,161,0.0,0.0,77,0.00,,,0.00,Wunderground v.1.15,2013-11-28 06:08:00,
2013-11-28 00:14:00,9.3,3.8,30.06,SSE,161,0.0,0.0,78,0.00,,,0.00,Wunderground v.1.15,2013-11-28 06:14:00,
2013-11-28 00:20:00,8.5,3.0,30.07,SSE,161,0.0,0.0,78,0.00,,,0.00,Wunderground v.1.15,2013-11-28 06:20:00,
2013-11-28 00:26:00,7.4,2.0,30.07,SSE,161,0.0,0.0,78,0.00,,,0.00,Wunderground v.1.15,2013-11-28 06:26:00,
2013-11-28 00:31:00,6.9,1.5,30.07,SSE,161,0.0,0.0,78,0.00,,,0.00,Wunderground v.1.15,2013-11-28 06:31:00,
2013-11-28 00:37:00,6.5,1.4,30.07,SSE,160,0.0,0.0,79,0.00,,,0.00,Wunderground v.1.15,2013-11-28 06:37:00,
2013-11-28 00:43:00,6.2,1.1,30.08,SSE,161,0.0,0.0,79,0.00,,,0.00,Wunderground v.1.15,2013-11-28 06:43:00,
2013-11-28 00:48:00,5.8,0.7,30.08,SSE,161,0.0,0.0,79,0.00,,,0.00,Wunderground v.1.15,2013-11-28 06:48:00,
2013-11-28 00:54:00,5.5,0.4,30.08,SSE,161,0.0,0.0,79,0.00,,,0.00,Wunderground v.1.15,2013-11-28 06:54:00,
2013-11-28 01:00:00,5.1,0.3,30.08,SSE,161,0.0,0.0,80,0.00,,,0.00,Wunderground v.1.15,2013-11-28 07:00:00,
2013-11-28 01:06:00,5.1,0.3,30.08,SSE,161,0.0,0.0,80,0.00,,,0.00,Wunderground v.1.15,2013-11-28 07:06:00,
2013-11-28 01:11:00,5.0,2.7,30.08,SSE,161,0.0,0.0,90,0.00,,,0.00,Wunderground v.1.15,2013-11-28 07:11:00,
2013-11-28 01:17:00,5.1,0.5,30.08,SSE,161,0.0,0.0,81,0.00,,,0.00,Wunderground v.1.15,2013-11-28 07:17:00,
2013-11-28 01:22:00,5.1,0.5,30.08,SSE,161,0.0,0.0,81,0.00,,,0.00,Wunderground v.1.15,2013-11-28 07:22:00,
2013-11-28 01:28:00,5.1,3.0,30.09,SSE,161,0.0,0.0,91,0.00,,,0.00,Wunderground v.1.15,2013-11-28 07:28:00,
2013-11-28 01:34:00,5.5,1.2,30.09,SSE,161,0.0,0.0,82,0.00,,,0.00,Wunderground v.1.15,2013-11-28 07:34:00,
2013-11-28 01:39:00,5.9,1.6,30.09,SSE,161,0.0,0.0,82,0.00,,,0.00,Wunderground v.1.15,2013-11-28 07:39:00,
2013-11-28 01:45:00,6.0,1.7,30.09,SSE,161,0.0,0.0,82,0.00,,,0.00,Wunderground v.1.15,2013-11-28 07:45:00,
2013-11-28 01:51:00,6.1,1.8,30.09,SSE,161,0.0,0.0,82,0.00,,,0.00,Wunderground v.1.15,2013-11-28 07:51:00,
2013-11-28 01:56:00,6.1,1.8,30.10,SSE,161,0.0,0.0,82,0.00,,,0.00,Wunderground v.1.15,2013-11-28 07:56:00,
2013-11-28 02:01:00,6.1,1.8,30.10,SSE,161,0.0,0.0,82,0.00,,,0.00,Wunderground v.1.15,2013-11-28 08:01:00,
2013-11-28 02:06:00,6.9,2.8,30.11,SSE,161,3.0,4.0,83,0.00,,,0.00,Wunderground v.1.15,2013-11-28 08:06:00,
2013-11-28 02:11:00,7.3,3.2,30.11,SSE,161,2.0,2.0,83,0.00,,,0.00,Wunderground v.1.15,2013-11-28 08:11:00,
2013-11-28 02:16:00,7.5,3.4,30.11,SSE,161,4.0,4.0,83,0.00,,,0.00,Wunderground v.1.15,2013-11-28 08:16:00,
2013-11-28 02:21:00,9.8,5.9,30.11,South,191,4.0,6.0,84,0.00,,,0.00,Wunderground v.1.15,2013-11-28 08:21:00,
2013-11-28 02:26:00,12.9,9.2,30.12,WNW,301,6.0,8.0,85,0.00,,,0.00,Wunderground v.1.15,2013-11-28 08:26:00,
2013-11-28 02:31:00,14.5,10.5,30.12,NW,304,5.0,6.0,84,0.00,,,0.00,Wunderground v.1.15,2013-11-28 08:31:00,
2013-11-28 02:36:00,15.2,10.7,30.12,NW,304,4.0,7.0,82,0.00,,,0.00,Wunderground v.1.15,2013-11-28 08:36:00,
2013-11-28 02:41:00,15.3,10.5,30.12,NW,305,5.0,6.0,81,0.00,,,0.00,Wunderground v.1.15,2013-11-28 08:41:00,
2013-11-28 02:46:00,15.9,11.1,30.13,NW,307,6.0,7.0,81,0.00,,,0.00,Wunderground v.1.15,2013-11-28 08:46:00,
2013-11-28 02:51:00,16.4,11.6,30.13,NW,309,6.0,7.0,81,0.00,,,0.00,Wunderground v.1.15,2013-11-28 08:51:00,
2013-11-28 02:56:00,16.8,11.7,30.14,NW,313,4.0,9.0,80,0.00,,,0.00,Wunderground v.1.15,2013-11-28 08:56:00,
2013-11-28 03:01:00,17.2,12.1,30.14,NW,315,6.0,9.0,80,0.00,,,0.00,Wunderground v.1.15,2013-11-28 09:01:00,
2013-11-28 03:06:00,17.5,12.4,30.14,NW,318,6.0,13.0,80,0.00,,,0.00,Wunderground v.1.15,2013-11-28 09:06:00,
2013-11-28 03:11:00,17.8,12.7,30.14,NW,319,4.0,7.0,80,0.00,,,0.00,Wunderground v.1.15,2013-11-28 09:11:00,
2013-11-28 03:16:00,18.0,12.6,30.14,NW,319,5.0,11.0,79,0.00,,,0.00,Wunderground v.1.15,2013-11-28 09:16:00,
2013-11-28 03:21:00,18.1,12.7,30.14,NW,313,9.0,15.0,79,0.00,,,0.00,Wunderground v.1.15,2013-11-28 09:21:00,
2013-11-28 03:26:00,18.2,12.8,30.14,NW,317,9.0,15.0,79,0.00,,,0.00,Wunderground v.1.15,2013-11-28 09:26:00,
2013-11-28 03:31:00,18.2,12.8,30.14,NW,321,6.0,11.0,79,0.00,,,0.00,Wunderground v.1.15,2013-11-28 09:31:00,
2013-11-28 03:36:00,18.2,12.8,30.14,NW,319,7.0,15.0,79,0.00,,,0.00,Wunderground v.1.15,2013-11-28 09:36:00,
2013-11-28 03:41:00,18.2,12.8,30.15,NW,319,12.0,14.0,79,0.00,,,0.00,Wunderground v.1.15,2013-11-28 09:41:00,
2013-11-28 03:46:00,18.1,12.7,30.15,NW,314,10.0,16.0,79,0.00,,,0.00,Wunderground v.1.15,2013-11-28 09:46:00,
2013-11-28 03:51:00,18.0,12.6,30.15,NW,323,8.0,15.0,79,0.00,,,0.00,Wunderground v.1.15,2013-11-28 09:51:00,
2013-11-28 03:56:00,18.0,12.6,30.15,NW,322,10.0,18.0,79,0.00,,,0.00,Wunderground v.1.15,2013-11-28 09:56:00,
2013-11-28 04:01:00,17.8,12.4,30.16,NW,315,9.0,13.0,79,0.00,,,0.00,Wunderground v.1.15,2013-11-28 10:01:00,
2013-11-28 04:06:00,17.7,12.3,30.16,NW,321,9.0,13.0,79,0.00,,,0.00,Wunderground v.1.15,2013-11-28 10:06:00,
2013-11-28 04:11:00,17.6,12.2,30.16,NW,309,11.0,11.0,79,0.00,,,0.00,Wunderground v.1.15,2013-11-28 10:11:00,
2013-11-28 04:16:00,17.6,12.2,30.16,NW,319,7.0,16.0,79,0.00,,,0.00,Wunderground v.1.15,2013-11-28 10:16:00,
2013-11-28 04:21:00,17.5,12.1,30.17,NW,315,9.0,13.0,79,0.00,,,0.00,Wunderground v.1.15,2013-11-28 10:21:00,
2013-11-28 04:26:00,17.4,12.0,30.17,NW,317,10.0,13.0,79,0.00,,,0.00,Wunderground v.1.15,2013-11-28 10:26:00,
2013-11-28 04:31:00,17.3,11.9,30.18,NW,323,8.0,11.0,79,0.00,,,0.00,Wunderground v.1.15,2013-11-28 10:31:00,
2013-11-28 04:36:00,17.1,11.7,30.18,NW,317,7.0,11.0,79,0.00,,,0.00,Wunderground v.1.15,2013-11-28 10:36:00,
2013-11-28 04:41:00,17.2,11.8,30.18,NW,320,7.0,8.0,79,0.00,,,0.00,Wunderground v.1.15,2013-11-28 10:41:00,
2013-11-28 04:46:00,17.1,11.7,30.18,NW,319,5.0,14.0,79,0.00,,,0.00,Wunderground v.1.15,2013-11-28 10:46:00,
2013-11-28 04:51:00,16.9,11.5,30.19,NW,323,10.0,10.0,79,0.00,,,0.00,Wunderground v.1.15,2013-11-28 10:51:00,
2013-11-28 04:56:00,16.9,11.5,30.19,NW,317,8.0,13.0,79,0.00,,,0.00,Wunderground v.1.15,2013-11-28 10:56:00,
2013-11-28 05:01:00,16.8,11.4,30.20,NW,315,7.0,14.0,79,0.00,,,0.00,Wunderground v.1.15,2013-11-28 11:01:00,
2013-11-28 05:06:00,16.6,11.2,30.20,NW,317,8.0,14.0,79,0.00,,,0.00,Wunderground v.1.15,2013-11-28 11:06:00,
2013-11-28 05:11:00,16.6,11.2,30.21,NW,317,5.0,12.0,79,0.00,,,0.00,Wunderground v.1.15,2013-11-28 11:11:00,
2013-11-28 05:16:00,16.5,11.1,30.21,NW,317,11.0,17.0,79,0.00,,,0.00,Wunderground v.1.15,2013-11-28 11:16:00,
2013-11-28 05:21:00,16.6,10.9,30.22,NW,317,6.0,12.0,78,0.00,,,0.00,Wunderground v.1.15,2013-11-28 11:21:00,
2013-11-28 05:26:00,16.4,10.7,30.22,NW,315,9.0,12.0,78,0.00,,,0.00,Wunderground v.1.15,2013-11-28 11:26:00,
2013-11-28 05:31:00,16.2,10.5,30.22,NW,315,8.0,10.0,78,0.00,,,0.00,Wunderground v.1.15,2013-11-28 11:31:00,
2013-11-28 05:36:00,16.1,10.2,30.23,NW,325,10.0,11.0,77,0.00,,,0.00,Wunderground v.1.15,2013-11-28 11:36:00,
2013-11-28 05:41:00,16.0,10.1,30.23,NW,315,9.0,11.0,77,0.00,,,0.00,Wunderground v.1.15,2013-11-28 11:41:00,
2013-11-28 05:47:00,15.8,10.2,30.23,NW,318,9.0,12.0,78,0.00,,,0.00,Wunderground v.1.15,2013-11-28 11:47:00,
2013-11-28 05:52:00,15.5,9.6,30.24,NW,317,8.0,11.0,77,0.00,,,0.00,Wunderground v.1.15,2013-11-28 11:52:00,
2013-11-28 05:57:00,15.3,9.7,30.24,NW,319,5.0,11.0,78,0.00,,,0.00,Wunderground v.1.15,2013-11-28 11:57:00,
2013-11-28 06:02:00,15.3,9.7,30.25,NW,322,8.0,12.0,78,0.00,,,0.00,Wunderground v.1.15,2013-11-28 12:02:00,
2013-11-28 06:07:00,15.3,9.7,30.25,NW,317,9.0,12.0,78,0.00,,,0.00,Wunderground v.1.15,2013-11-28 12:07:00,
2013-11-28 06:12:00,15.2,9.6,30.25,NW,320,7.0,10.0,78,0.00,,,0.00,Wunderground v.1.15,2013-11-28 12:12:00,
2013-11-28 06:17:00,15.0,9.4,30.26,NW,319,6.0,11.0,78,0.00,,,0.00,Wunderground v.1.15,2013-11-28 12:17:00,
2013-11-28 06:22:00,14.9,9.3,30.26,NW,315,5.0,10.0,78,0.00,,,0.00,Wunderground v.1.15,2013-11-28 12:22:00,
2013-11-28 06:27:00,14.8,9.2,30.27,NW,316,7.0,10.0,78,0.00,,,0.00,Wunderground v.1.15,2013-11-28 12:27:00,
2013-11-28 06:32:00,14.6,9.0,30.27,NW,315,6.0,7.0,78,0.00,,,0.00,Wunderground v.1.15,2013-11-28 12:32:00,
2013-11-28 06:37:00,14.3,9.0,30.27,NW,319,6.0,9.0,79,0.00,,,0.00,Wunderground v.1.15,2013-11-28 12:37:00,
2013-11-28 06:42:00,14.1,8.8,30.28,NW,319,4.0,6.0,79,0.00,,,0.00,Wunderground v.1.15,2013-11-28 12:42:00,
2013-11-28 06:47:00,14.0,8.7,30.28,NW,317,6.0,7.0,79,0.00,,,0.00,Wunderground v.1.15,2013-11-28 12:47:00,
2013-11-28 06:52:00,13.8,8.5,30.29,NW,317,4.0,6.0,79,0.00,,,0.00,Wunderground v.1.15,2013-11-28 12:52:00,
2013-11-28 06:57:00,13.6,8.6,30.29,NW,317,3.0,6.0,80,0.00,,,0.00,Wunderground v.1.15,2013-11-28 12:57:00,
2013-11-28 07:02:00,13.4,8.4,30.29,NW,317,4.0,5.0,80,0.00,,,0.00,Wunderground v.1.15,2013-11-28 13:02:00,
2013-11-28 07:07:00,13.2,8.2,30.29,NW,317,4.0,5.0,80,0.00,,,0.00,Wunderground v.1.15,2013-11-28 13:07:00,
2013-11-28 07:12:00,13.1,8.1,30.29,NW,317,5.0,5.0,80,0.00,,,0.00,Wunderground v.1.15,2013-11-28 13:12:00,
2013-11-28 07:17:00,12.9,7.9,30.29,NW,317,3.0,5.0,80,0.00,,,0.00,Wunderground v.1.15,2013-11-28 13:17:00,
2013-11-28 07:22:00,12.9,8.2,30.30,NW,317,4.0,6.0,81,0.00,,,0.00,Wunderground v.1.15,2013-11-28 13:22:00,
2013-11-28 07:27:00,13.2,8.5,30.30,NW,317,4.0,6.0,81,0.00,,,0.00,Wunderground v.1.15,2013-11-28 13:27:00,
2013-11-28 07:32:00,13.5,8.8,30.30,NW,315,4.0,6.0,81,0.00,,,0.00,Wunderground v.1.15,2013-11-28 13:32:00,
2013-11-28 07:37:00,14.2,9.7,30.30,NW,314,4.0,7.0,82,0.00,,,0.00,Wunderground v.1.15,2013-11-28 13:37:00,
2013-11-28 07:42:00,14.9,10.4,30.30,NW,311,6.0,8.0,82,0.00,,,0.00,Wunderground v.1.15,2013-11-28 13:42:00,
2013-11-28 07:47:00,15.5,11.0,30.31,NW,311,6.0,8.0,82,0.00,,,0.00,Wunderground v.1.15,2013-11-28 13:47:00,
2013-11-28 07:53:00,16.2,11.7,30.31,NW,311,6.0,8.0,82,0.00,,,0.00,Wunderground v.1.15,2013-11-28 13:53:00,
2013-11-28 07:58:00,17.1,12.6,30.31,NW,319,3.0,9.0,82,0.00,,,0.00,Wunderground v.1.15,2013-11-28 13:58:00,
2013-11-28 08:03:00,17.9,13.3,30.32,NW,318,5.0,8.0,82,0.00,,,0.00,Wunderground v.1.15,2013-11-28 14:03:00,
2013-11-28 08:08:00,18.3,13.4,30.32,NW,318,3.0,8.0,81,0.00,,,0.00,Wunderground v.1.15,2013-11-28 14:08:00,
2013-11-28 08:13:00,18.4,13.3,30.32,NW,318,5.0,8.0,80,0.00,,,0.00,Wunderground v.1.15,2013-11-28 14:13:00,
2013-11-28 08:18:00,18.1,13.0,30.32,NW,319,6.0,8.0,80,0.00,,,0.00,Wunderground v.1.15,2013-11-28 14:18:00,
2013-11-28 08:23:00,17.8,12.4,30.33,NW,319,3.0,6.0,79,0.00,,,0.00,Wunderground v.1.15,2013-11-28 14:23:00,
2013-11-28 08:28:00,18.0,12.9,30.33,NW,319,7.0,7.0,80,0.00,,,0.00,Wunderground v.1.15,2013-11-28 14:28:00,
2013-11-28 08:33:00,18.7,13.6,30.34,NW,321,6.0,9.0,80,0.00,,,0.00,Wunderground v.1.15,2013-11-28 14:33:00,
2013-11-28 08:38:00,19.3,13.9,30.34,NW,321,7.0,12.0,79,0.00,,,0.00,Wunderground v.1.15,2013-11-28 14:38:00,
2013-11-28 08:43:00,19.7,14.2,30.34,NW,321,3.0,12.0,79,0.00,,,0.00,Wunderground v.1.15,2013-11-28 14:43:00,
2013-11-28 08:48:00,20.0,14.2,30.34,NW,322,7.0,12.0,78,0.00,,,0.00,Wunderground v.1.15,2013-11-28 14:48:00,
2013-11-28 08:53:00,20.3,14.2,30.34,NW,312,5.0,12.0,77,0.00,,,0.00,Wunderground v.1.15,2013-11-28 14:53:00,
2013-11-28 08:58:00,20.5,14.4,30.35,NW,317,7.0,12.0,77,0.00,,,0.00,Wunderground v.1.15,2013-11-28 14:58:00,
2013-11-28 09:03:00,20.8,14.7,30.35,NW,318,3.0,9.0,77,0.00,,,0.00,Wunderground v.1.15,2013-11-28 15:03:00,
2013-11-28 09:08:00,21.1,14.7,30.35,NW,319,4.0,13.0,76,0.00,,,0.00,Wunderground v.1.15,2013-11-28 15:08:00,
2013-11-28 09:13:00,21.3,14.9,30.35,NW,319,1.0,11.0,76,0.00,,,0.00,Wunderground v.1.15,2013-11-28 15:13:00,
2013-11-28 09:18:00,21.6,15.2,30.36,NW,323,9.0,11.0,76,0.00,,,0.00,Wunderground v.1.15,2013-11-28 15:18:00,
2013-11-28 09:23:00,21.7,15.0,30.36,NW,323,7.0,15.0,75,0.00,,,0.00,Wunderground v.1.15,2013-11-28 15:23:00,
2013-11-28 09:28:00,22.0,15.3,30.36,NW,318,10.0,15.0,75,0.00,,,0.00,Wunderground v.1.15,2013-11-28 15:28:00,
2013-11-28 09:33:00,22.1,15.1,30.36,NNW,335,5.0,15.0,74,0.00,,,0.00,Wunderground v.1.15,2013-11-28 15:33:00,
2013-11-28 09:38:00,22.4,15.4,30.37,NW,320,4.0,15.0,74,0.00,,,0.00,Wunderground v.1.15,2013-11-28 15:38:00,
2013-11-28 09:43:00,22.8,15.4,30.37,NNW,330,6.0,14.0,73,0.00,,,0.00,Wunderground v.1.15,2013-11-28 15:43:00,
2013-11-28 09:48:00,23.1,15.7,30.37,NNW,338,4.0,14.0,73,0.00,,,0.00,Wunderground v.1.15,2013-11-28 15:48:00,
2013-11-28 09:53:00,23.3,15.6,30.37,NNW,332,8.0,10.0,72,0.00,,,0.00,Wunderground v.1.15,2013-11-28 15:53:00,
2013-11-28 09:58:00,23.5,15.5,30.37,NNW,338,6.0,12.0,71,0.00,,,0.00,Wunderground v.1.15,2013-11-28 15:58:00,
2013-11-28 10:03:00,23.6,15.2,30.37,NW,317,4.0,18.0,70,0.00,,,0.00,Wunderground v.1.15,2013-11-28 16:03:00,
2013-11-28 10:08:00,23.8,15.4,30.37,NW,325,9.0,18.0,70,0.00,,,0.00,Wunderground v.1.15,2013-11-28 16:08:00,
2013-11-28 10:13:00,24.0,15.3,30.37,NNW,341,9.0,20.0,69,0.00,,,0.00,Wunderground v.1.15,2013-11-28 16:13:00,
2013-11-28 10:18:00,24.3,15.6,30.38,NNW,348,5.0,20.0,69,0.00,,,0.00,Wunderground v.1.15,2013-11-28 16:18:00,
2013-11-28 10:24:00,24.6,15.5,30.38,NNW,342,8.0,9.0,68,0.00,,,0.00,Wunderground v.1.15,2013-11-28 16:24:00,
2013-11-28 10:29:00,25.0,15.6,30.38,NNW,333,5.0,17.0,67,0.00,,,0.00,Wunderground v.1.15,2013-11-28 16:29:00,
2013-11-28 10:34:00,25.2,15.8,30.38,NNW,329,8.0,14.0,67,0.00,,,0.00,Wunderground v.1.15,2013-11-28 16:34:00,
2013-11-28 10:39:00,25.4,16.0,30.38,NW,325,7.0,17.0,67,0.00,,,0.00,Wunderground v.1.15,2013-11-28 16:39:00,
2013-11-28 10:44:00,25.1,15.3,30.38,NNW,340,7.0,15.0,66,0.00,,,0.00,Wunderground v.1.15,2013-11-28 16:44:00,
2013-11-28 10:49:00,24.9,15.5,30.39,NNW,327,14.0,15.0,67,0.00,,,0.00,Wunderground v.1.15,2013-11-28 16:49:00,
2013-11-28 10:54:00,25.3,15.9,30.38,NNW,330,6.0,13.0,67,0.00,,,0.00,Wunderground v.1.15,2013-11-28 16:54:00,
2013-11-28 10:59:00,25.6,16.2,30.38,NW,316,11.0,13.0,67,0.00,,,0.00,Wunderground v.1.15,2013-11-28 16:59:00,
2013-11-28 11:04:00,26.2,16.4,30.39,NNW,342,11.0,14.0,66,0.00,,,0.00,Wunderground v.1.15,2013-11-28 17:04:00,
2013-11-28 11:09:00,26.4,16.2,30.39,NNW,337,7.0,14.0,65,0.00,,,0.00,Wunderground v.1.15,2013-11-28 17:09:00,
2013-11-28 11:14:00,26.4,16.2,30.39,NNW,334,12.0,15.0,65,0.00,,,0.00,Wunderground v.1.15,2013-11-28 17:14:00,
2013-11-28 11:19:00,26.7,16.5,30.39,NW,325,3.0,15.0,65,0.00,,,0.00,Wunderground v.1.15,2013-11-28 17:19:00,
2013-11-28 11:24:00,26.7,16.1,30.39,NW,323,6.0,10.0,64,0.00,,,0.00,Wunderground v.1.15,2013-11-28 17:24:00,
2013-11-28 11:29:00,26.1,15.6,30.39,NNW,331,6.0,18.0,64,0.00,,,0.00,Wunderground v.1.15,2013-11-28 17:29:00,
2013-11-28 11:34:00,26.9,16.3,30.39,NNW,333,5.0,16.0,64,0.00,,,0.00,Wunderground v.1.15,2013-11-28 17:34:00,
2013-11-28 11:39:00,26.3,15.0,30.39,NW,322,4.0,16.0,62,0.00,,,0.00,Wunderground v.1.15,2013-11-28 17:39:00,
2013-11-28 11:44:00,26.4,16.2,30.39,NW,313,6.0,10.0,65,0.00,,,0.00,Wunderground v.1.15,2013-11-28 17:44:00,
2013-11-28 11:49:00,26.8,15.9,30.39,NW,325,5.0,15.0,63,0.00,,,0.00,Wunderground v.1.15,2013-11-28 17:49:00,
2013-11-28 11:54:00,26.9,15.6,30.39,NW,322,9.0,16.0,62,0.00,,,0.00,Wunderground v.1.15,2013-11-28 17:54:00,
2013-11-28 11:59:00,26.7,15.4,30.39,NNW,338,1.0,16.0,62,0.00,,,0.00,Wunderground v.1.15,2013-11-28 17:59:00,
2013-11-28 12:04:00,27.4,16.4,30.39,NNW,331,6.0,8.0,63,0.00,,,0.00,Wunderground v.1.15,2013-11-28 18:04:00,
2013-11-28 12:09:00,27.0,15.3,30.39,NW,311,7.0,11.0,61,0.00,,,0.00,Wunderground v.1.15,2013-11-28 18:09:00,
2013-11-28 12:14:00,27.2,15.5,30.39,NNW,333,11.0,14.0,61,0.00,,,0.00,Wunderground v.1.15,2013-11-28 18:14:00,
2013-11-28 12:19:00,26.2,14.9,30.39,NW,313,12.0,15.0,62,0.00,,,0.00,Wunderground v.1.15,2013-11-28 18:19:00,
2013-11-28 12:24:00,25.7,15.2,30.40,NW,308,13.0,16.0,64,0.00,,,0.00,Wunderground v.1.15,2013-11-28 18:24:00,
2013-11-28 12:29:00,25.0,14.9,30.40,NW,321,10.0,16.0,65,0.00,,,0.00,Wunderground v.1.15,2013-11-28 18:29:00,
2013-11-28 12:34:00,24.6,14.9,30.40,NW,318,11.0,16.0,66,0.00,,,0.00,Wunderground v.1.15,2013-11-28 18:34:00,
2013-11-28 12:39:00,24.4,14.7,30.40,NW,304,15.0,16.0,66,0.00,,,0.00,Wunderground v.1.15,2013-11-28 18:39:00,
2013-11-28 12:44:00,24.4,14.7,30.41,NW,309,8.0,14.0,66,0.00,,,0.00,Wunderground v.1.15,2013-11-28 18:44:00,
2013-11-28 12:49:00,24.3,14.9,30.41,NW,306,7.0,15.0,67,0.00,,,0.00,Wunderground v.1.15,2013-11-28 18:49:00,
2013-11-28 12:55:00,24.2,14.8,30.41,WNW,299,8.0,17.0,67,0.00,,,0.00,Wunderground v.1.15,2013-11-28 18:55:00,
2013-11-28 13:00:00,24.2,14.8,30.41,NNW,330,5.0,17.0,67,0.00,,,0.00,Wunderground v.1.15,2013-11-28 19:00:00,
2013-11-28 13:05:00,24.4,15.0,30.41,NNW,329,9.0,15.0,67,0.00,,,0.00,Wunderground v.1.15,2013-11-28 19:05:00,
2013-11-28 13:10:00,24.2,14.5,30.41,NW,307,7.0,10.0,66,0.00,,,0.00,Wunderground v.1.15,2013-11-28 19:10:00,
2013-11-28 13:15:00,24.4,14.7,30.41,NW,322,10.0,13.0,66,0.00,,,0.00,Wunderground v.1.15,2013-11-28 19:15:00,
2013-11-28 13:20:00,24.3,14.6,30.41,NW,314,8.0,10.0,66,0.00,,,0.00,Wunderground v.1.15,2013-11-28 19:20:00,
2013-11-28 13:25:00,24.3,14.6,30.41,NW,323,6.0,14.0,66,0.00,,,0.00,Wunderground v.1.15,2013-11-28 19:25:00,
2013-11-28 13:30:00,24.4,14.7,30.41,NW,311,11.0,11.0,66,0.00,,,0.00,Wunderground v.1.15,2013-11-28 19:30:00,
2013-11-28 13:35:00,24.5,14.8,30.41,NW,314,11.0,15.0,66,0.00,,,0.00,Wunderground v.1.15,2013-11-28 19:35:00,
2013-11-28 13:40:00,25.1,15.0,30.41,NNW,337,5.0,9.0,65,0.00,,,0.00,Wunderground v.1.15,2013-11-28 19:40:00,
2013-11-28 13:45:00,24.8,14.3,30.42,NW,304,8.0,12.0,64,0.00,,,0.00,Wunderground v.1.15,2013-11-28 19:45:00,
2013-11-28 13:50:00,24.1,14.0,30.41,NW,315,4.0,7.0,65,0.00,,,0.00,Wunderground v.1.15,2013-11-28 19:50:00,
2013-11-28 13:55:00,23.9,14.2,30.42,NW,317,10.0,12.0,66,0.00,,,0.00,Wunderground v.1.15,2013-11-28 19:55:00,
2013-11-28 14:00:00,23.4,13.7,30.42,NW,322,8.0,8.0,66,0.00,,,0.00,Wunderground v.1.15,2013-11-28 20:00:00,
2013-11-28 14:05:00,23.6,13.9,30.42,NW,322,5.0,11.0,66,0.00,,,0.00,Wunderground v.1.15,2013-11-28 20:05:00,
2013-11-28 14:10:00,24.0,13.9,30.42,NNW,330,6.0,7.0,65,0.00,,,0.00,Wunderground v.1.15,2013-11-28 20:10:00,
2013-11-28 14:16:00,24.8,14.3,30.41,NW,305,12.0,14.0,64,0.00,,,0.00,Wunderground v.1.15,2013-11-28 20:16:00,
2013-11-28 14:21:00,25.1,14.3,30.41,NW,317,6.0,16.0,63,0.00,,,0.00,Wunderground v.1.15,2013-11-28 20:21:00,
2013-11-28 14:26:00,25.2,14.0,30.42,NNW,334,11.0,16.0,62,0.00,,,0.00,Wunderground v.1.15,2013-11-28 20:26:00,
2013-11-28 14:31:00,25.2,14.0,30.42,NW,319,12.0,12.0,62,0.00,,,0.00,Wunderground v.1.15,2013-11-28 20:31:00,
2013-11-28 14:36:00,25.1,13.9,30.42,NW,310,8.0,12.0,62,0.00,,,0.00,Wunderground v.1.15,2013-11-28 20:36:00,
2013-11-28 14:41:00,25.1,13.9,30.42,NW,315,11.0,13.0,62,0.00,,,0.00,Wunderground v.1.15,2013-11-28 20:41:00,
2013-11-28 14:46:00,25.1,13.9,30.42,NW,317,9.0,16.0,62,0.00,,,0.00,Wunderground v.1.15,2013-11-28 20:46:00,
2013-11-28 14:51:00,24.8,13.6,30.42,NNW,333,8.0,12.0,62,0.00,,,0.00,Wunderground v.1.15,2013-11-28 20:51:00,
2013-11-28 14:56:00,24.9,13.7,30.43,NW,323,8.0,14.0,62,0.00,,,0.00,Wunderground v.1.15,2013-11-28 20:56:00,
2013-11-28 15:01:00,24.9,13.7,30.43,NW,310,8.0,11.0,62,0.00,,,0.00,Wunderground v.1.15,2013-11-28 21:01:00,
2013-11-28 15:06:00,24.9,13.3,30.43,NW,322,6.0,13.0,61,0.00,,,0.00,Wunderground v.1.15,2013-11-28 21:06:00,
2013-11-28 15:11:00,25.0,13.4,30.43,NW,309,10.0,11.0,61,0.00,,,0.00,Wunderground v.1.15,2013-11-28 21:11:00,
2013-11-28 15:16:00,24.9,13.3,30.43,NW,323,9.0,15.0,61,0.00,,,0.00,Wunderground v.1.15,2013-11-28 21:16:00,
2013-11-28 15:21:00,24.8,13.2,30.43,NW,322,7.0,9.0,61,0.00,,,0.00,Wunderground v.1.15,2013-11-28 21:21:00,
2013-11-28 15:26:00,24.7,13.1,30.43,NW,309,9.0,13.0,61,0.00,,,0.00,Wunderground v.1.15,2013-11-28 21:26:00,
2013-11-28 15:31:00,24.8,13.2,30.43,NW,323,2.0,8.0,61,0.00,,,0.00,Wunderground v.1.15,2013-11-28 21:31:00,
2013-11-28 15:36:00,24.6,13.1,30.44,NW,311,6.0,10.0,61,0.00,,,0.00,Wunderground v.1.15,2013-11-28 21:36:00,
2013-11-28 15:41:00,24.5,13.0,30.44,NW,322,5.0,8.0,61,0.00,,,0.00,Wunderground v.1.15,2013-11-28 21:41:00,
2013-11-28 15:46:00,24.3,13.1,30.44,NW,322,9.0,12.0,62,0.00,,,0.00,Wunderground v.1.15,2013-11-28 21:46:00,
2013-11-28 15:51:00,23.9,12.4,30.44,NW,322,8.0,9.0,61,0.00,,,0.00,Wunderground v.1.15,2013-11-28 21:51:00,
2013-11-28 15:56:00,23.9,12.8,30.44,NW,318,4.0,9.0,62,0.00,,,0.00,Wunderground v.1.15,2013-11-28 21:56:00,
2013-11-28 16:01:00,23.7,12.6,30.44,NW,315,5.0,7.0,62,0.00,,,0.00,Wunderground v.1.15,2013-11-28 22:01:00,
2013-11-28 16:06:00,23.5,12.4,30.44,NW,313,1.0,8.0,62,0.00,,,0.00,Wunderground v.1.15,2013-11-28 22:06:00,
2013-11-28 16:11:00,23.3,12.2,30.44,NW,319,5.0,7.0,62,0.00,,,0.00,Wunderground v.1.15,2013-11-28 22:11:00,
2013-11-28 16:16:00,23.0,11.9,30.45,NW,319,5.0,8.0,62,0.00,,,0.00,Wunderground v.1.15,2013-11-28 22:16:00,
2013-11-28 16:21:00,22.7,12.0,30.45,NNW,327,5.0,9.0,63,0.00,,,0.00,Wunderground v.1.15,2013-11-28 22:21:00,
2013-11-28 16:26:00,22.5,12.1,30.45,NW,307,5.0,9.0,64,0.00,,,0.00,Wunderground v.1.15,2013-11-28 22:26:00,
2013-11-28 16:31:00,22.2,11.9,30.46,NW,311,5.0,6.0,64,0.00,,,0.00,Wunderground v.1.15,2013-11-28 22:31:00,
2013-11-28 16:36:00,21.7,11.4,30.46,NW,312,3.0,6.0,64,0.00,,,0.00,Wunderground v.1.15,2013-11-28 22:36:00,
2013-11-28 16:41:00,21.2,10.9,30.45,NW,312,0.0,3.0,64,0.00,,,0.00,Wunderground v.1.15,2013-11-28 22:41:00,
2013-11-28 16:46:00,20.7,10.8,30.46,NW,311,0.0,3.0,65,0.00,,,0.00,Wunderground v.1.15,2013-11-28 22:46:00,
2013-11-28 16:51:00,20.2,10.3,30.46,NW,312,0.0,0.0,65,0.00,,,0.00,Wunderground v.1.15,2013-11-28 22:51:00,
2013-11-28 16:56:00,19.7,10.2,30.46,NW,312,1.0,2.0,66,0.00,,,0.00,Wunderground v.1.15,2013-11-28 22:56:00,
2013-11-28 17:01:00,19.1,9.9,30.46,NW,311,4.0,4.0,67,0.00,,,0.00,Wunderground v.1.15,2013-11-28 23:01:00,
2013-11-28 17:06:00,18.8,9.6,30.46,NW,312,0.0,4.0,67,0.00,,,0.00,Wunderground v.1.15,2013-11-28 23:06:00,
2013-11-28 17:11:00,18.2,9.1,30.47,NW,312,0.0,1.0,67,0.00,,,0.00,Wunderground v.1.15,2013-11-28 23:11:00,
2013-11-28 17:16:00,17.6,8.8,30.47,NW,311,0.0,1.0,68,0.00,,,0.00,Wunderground v.1.15,2013-11-28 23:16:00,
2013-11-28 17:21:00,16.8,8.1,30.47,NW,312,0.0,0.0,68,0.00,,,0.00,Wunderground v.1.15,2013-11-28 23:21:00,
2013-11-28 17:27:00,16.2,7.8,30.47,NW,311,0.0,0.0,69,0.00,,,0.00,Wunderground v.1.15,2013-11-28 23:27:00,
2013-11-28 17:32:00,15.7,7.6,30.47,NW,312,0.0,0.0,70,0.00,,,0.00,Wunderground v.1.15,2013-11-28 23:32:00,
2013-11-28 17:37:00,15.4,7.7,30.47,NW,311,0.0,0.0,71,0.00,,,0.00,Wunderground v.1.15,2013-11-28 23:37:00,
2013-11-28 17:42:00,15.1,7.7,30.48,NW,311,0.0,0.0,72,0.00,,,0.00,Wunderground v.1.15,2013-11-28 23:42:00,
2013-11-28 17:47:00,14.9,7.5,30.48,NW,312,0.0,0.0,72,0.00,,,0.00,Wunderground v.1.15,2013-11-28 23:47:00,
2013-11-28 17:52:00,14.2,6.8,30.48,NW,312,0.0,0.0,72,0.00,,,0.00,Wunderground v.1.15,2013-11-28 23:52:00,
2013-11-28 17:57:00,13.4,6.1,30.48,NW,312,0.0,0.0,72,0.00,,,0.00,Wunderground v.1.15,2013-11-28 23:57:00,
2013-11-28 18:02:00,12.5,5.5,30.48,NW,311,0.0,0.0,73,0.00,,,0.00,Wunderground v.1.15,2013-11-29 00:02:00,
2013-11-28 18:07:00,12.1,5.4,30.48,NW,312,0.0,0.0,74,0.00,,,0.00,Wunderground v.1.15,2013-11-29 00:07:00,
2013-11-28 18:12:00,11.8,5.1,30.48,NW,311,0.0,0.0,74,0.00,,,0.00,Wunderground v.1.15,2013-11-29 00:12:00,
2013-11-28 18:17:00,11.1,4.4,30.49,NW,312,0.0,0.0,74,0.00,,,0.00,Wunderground v.1.15,2013-11-29 00:17:00,
2013-11-28 18:22:00,10.5,4.1,30.49,NW,312,0.0,0.0,75,0.00,,,0.00,Wunderground v.1.15,2013-11-29 00:22:00,
2013-11-28 18:27:00,9.9,3.6,30.49,NW,312,0.0,0.0,75,0.00,,,0.00,Wunderground v.1.15,2013-11-29 00:27:00,
2013-11-28 18:33:00,9.2,2.9,30.50,NW,312,0.0,0.0,75,0.00,,,0.00,Wunderground v.1.15,2013-11-29 00:33:00,
2013-11-28 18:38:00,8.6,2.3,30.50,NW,312,0.0,0.0,75,0.00,,,0.00,Wunderground v.1.15,2013-11-29 00:38:00,
2013-11-28 18:43:00,8.4,2.4,30.50,NW,311,0.0,0.0,76,0.00,,,0.00,Wunderground v.1.15,2013-11-29 00:43:00,
2013-11-28 18:48:00,7.9,1.9,30.50,NW,312,0.0,0.0,76,0.00,,,0.00,Wunderground v.1.15,2013-11-29 00:48:00,
2013-11-28 18:53:00,7.2,1.2,30.50,NW,311,0.0,0.0,76,0.00,,,0.00,Wunderground v.1.15,2013-11-29 00:53:00,
2013-11-28 18:58:00,6.7,1.0,30.50,NW,312,0.0,0.0,77,0.00,,,0.00,Wunderground v.1.15,2013-11-29 00:58:00,
2013-11-28 19:03:00,6.1,0.4,30.50,NW,311,0.0,0.0,77,0.00,,,0.00,Wunderground v.1.15,2013-11-29 01:03:00,
2013-11-28 19:08:00,6.1,0.4,30.50,NW,312,0.0,0.0,77,0.00,,,0.00,Wunderground v.1.15,2013-11-29 01:08:00,
2013-11-28 19:13:00,6.0,0.6,30.51,NW,311,0.0,0.0,78,0.00,,,0.00,Wunderground v.1.15,2013-11-29 01:13:00,
2013-11-28 19:18:00,6.0,0.6,30.51,NW,312,0.0,0.0,78,0.00,,,0.00,Wunderground v.1.15,2013-11-29 01:18:00,
2013-11-28 19:23:00,6.1,0.7,30.51,NW,311,0.0,0.0,78,0.00,,,0.00,Wunderground v.1.15,2013-11-29 01:23:00,
2013-11-28 19:28:00,5.7,0.3,30.51,NW,312,0.0,0.0,78,0.00,,,0.00,Wunderground v.1.15,2013-11-29 01:28:00,
2013-11-28 19:33:00,5.8,0.7,30.51,NW,312,0.0,0.0,79,0.00,,,0.00,Wunderground v.1.15,2013-11-29 01:33:00,
2013-11-28 19:38:00,5.5,0.4,30.51,NW,311,0.0,0.0,79,0.00,,,0.00,Wunderground v.1.15,2013-11-29 01:38:00,
2013-11-28 19:43:00,5.4,0.3,30.51,NW,312,0.0,0.0,79,0.00,,,0.00,Wunderground v.1.15,2013-11-29 01:43:00,
2013-11-28 19:48:00,5.6,0.5,30.51,NW,312,0.0,0.0,79,0.00,,,0.00,Wunderground v.1.15,2013-11-29 01:48:00,
2013-11-28 19:53:00,5.4,0.3,30.51,NW,312,0.0,0.0,79,0.00,,,0.00,Wunderground v.1.15,2013-11-29 01:53:00,
2013-11-28 19:58:00,4.8,-0.3,30.52,NW,312,0.0,0.0,79,0.00,,,0.00,Wunderground v.1.15,2013-11-29 01:58:00,
2013-11-28 20:03:00,4.2,-0.9,30.52,NW,312,0.0,0.0,79,0.00,,,0.00,Wunderground v.1.15,2013-11-29 02:03:00,
2013-11-28 20:08:00,3.9,-1.2,30.52,NW,312,0.0,0.0,79,0.00,,,0.00,Wunderground v.1.15,2013-11-29 02:08:00,
2013-11-28 20:13:00,3.6,-1.5,30.52,NW,311,0.0,0.0,79,0.00,,,0.00,Wunderground v.1.15,2013-11-29 02:13:00,
2013-11-28 20:18:00,3.2,-1.8,30.52,NW,312,0.0,0.0,79,0.00,,,0.00,Wunderground v.1.15,2013-11-29 02:18:00,
2013-11-28 20:23:00,3.0,-2.0,30.52,NW,311,0.0,0.0,79,0.00,,,0.00,Wunderground v.1.15,2013-11-29 02:23:00,
2013-11-28 20:28:00,2.6,-2.4,30.52,NW,312,0.0,0.0,79,0.00,,,0.00,Wunderground v.1.15,2013-11-29 02:28:00,
2013-11-28 20:33:00,2.2,-2.8,30.52,NW,311,0.0,0.0,79,0.00,,,0.00,Wunderground v.1.15,2013-11-29 02:33:00,
2013-11-28 20:38:00,2.4,-2.4,30.52,NW,311,0.0,0.0,80,0.00,,,0.00,Wunderground v.1.15,2013-11-29 02:38:00,
2013-11-28 20:43:00,2.4,-2.4,30.52,NW,311,0.0,0.0,80,0.00,,,0.00,Wunderground v.1.15,2013-11-29 02:43:00,
2013-11-28 20:48:00,2.3,-2.5,30.52,NW,312,0.0,0.0,80,0.00,,,0.00,Wunderground v.1.15,2013-11-29 02:48:00,
2013-11-28 20:53:00,1.9,-2.8,30.52,NW,312,0.0,0.0,80,0.00,,,0.00,Wunderground v.1.15,2013-11-29 02:53:00,
2013-11-28 20:58:00,1.9,-2.8,30.52,NW,311,0.0,0.0,80,0.00,,,0.00,Wunderground v.1.15,2013-11-29 02:58:00,
2013-11-28 21:03:00,2.1,-2.7,30.52,NW,312,0.0,0.0,80,0.00,,,0.00,Wunderground v.1.15,2013-11-29 03:03:00,
2013-11-28 21:09:00,1.9,-2.8,30.52,NW,312,0.0,0.0,80,0.00,,,0.00,Wunderground v.1.15,2013-11-29 03:09:00,
2013-11-28 21:13:00,1.7,-3.0,30.52,NW,312,0.0,0.0,80,0.00,,,0.00,Wunderground v.1.15,2013-11-29 03:13:00,
2013-11-28 21:19:00,1.4,-3.3,30.52,NW,311,0.0,0.0,80,0.00,,,0.00,Wunderground v.1.15,2013-11-29 03:19:00,
2013-11-28 21:24:00,1.3,-3.4,30.52,NW,312,0.0,0.0,80,0.00,,,0.00,Wunderground v.1.15,2013-11-29 03:24:00,
2013-11-28 21:29:00,1.5,-3.0,30.52,NW,312,0.0,0.0,81,0.00,,,0.00,Wunderground v.1.15,2013-11-29 03:29:00,
2013-11-28 21:34:00,1.8,-2.7,30.52,NW,312,0.0,0.0,81,0.00,,,0.00,Wunderground v.1.15,2013-11-29 03:34:00,
2013-11-28 21:38:00,1.9,-2.6,30.52,NW,311,0.0,0.0,81,0.00,,,0.00,Wunderground v.1.15,2013-11-29 03:38:00,
2013-11-28 21:44:00,1.6,-2.9,30.52,NW,312,0.0,0.0,81,0.00,,,0.00,Wunderground v.1.15,2013-11-29 03:44:00,
2013-11-28 21:48:00,1.4,-3.1,30.52,NW,312,0.0,0.0,81,0.00,,,0.00,Wunderground v.1.15,2013-11-29 03:48:00,
2013-11-28 21:53:00,1.1,-3.4,30.52,NW,312,0.0,0.0,81,0.00,,,0.00,Wunderground v.1.15,2013-11-29 03:53:00,
2013-11-28 21:59:00,1.1,-3.4,30.52,NW,311,0.0,0.0,81,0.00,,,0.00,Wunderground v.1.15,2013-11-29 03:59:00,
2013-11-28 22:04:00,1.0,-3.5,30.52,NW,312,0.0,0.0,81,0.00,,,0.00,Wunderground v.1.15,2013-11-29 04:04:00,
2013-11-28 22:09:00,1.0,-3.5,30.52,NW,311,0.0,0.0,81,0.00,,,0.00,Wunderground v.1.15,2013-11-29 04:09:00,
2013-11-28 22:14:00,1.1,-3.4,30.53,NW,312,0.0,0.0,81,0.00,,,0.00,Wunderground v.1.15,2013-11-29 04:14:00,
2013-11-28 22:19:00,1.3,-2.9,30.53,NW,312,0.0,0.0,82,0.00,,,0.00,Wunderground v.1.15,2013-11-29 04:19:00,
2013-11-28 22:24:00,1.4,-3.1,30.53,NW,311,0.0,0.0,81,0.00,,,0.00,Wunderground v.1.15,2013-11-29 04:24:00,
2013-11-28 22:29:00,1.2,-3.3,30.53,NW,312,0.0,0.0,81,0.00,,,0.00,Wunderground v.1.15,2013-11-29 04:29:00,
2013-11-28 22:34:00,0.9,-3.6,30.53,NW,311,0.0,0.0,81,0.00,,,0.00,Wunderground v.1.15,2013-11-29 04:34:00,
2013-11-28 22:39:00,0.7,-3.8,30.53,NW,312,0.0,0.0,81,0.00,,,0.00,Wunderground v.1.15,2013-11-29 04:39:00,
2013-11-28 22:44:00,0.4,-4.1,30.53,NW,312,0.0,0.0,81,0.00,,,0.00,Wunderground v.1.15,2013-11-29 04:44:00,
2013-11-28 22:49:00,0.4,-4.1,30.53,NW,312,0.0,0.0,81,0.00,,,0.00,Wunderground v.1.15,2013-11-29 04:49:00,
2013-11-28 22:54:00,0.3,-4.2,30.53,NW,312,0.0,0.0,81,0.00,,,0.00,Wunderground v.1.15,2013-11-29 04:54:00,
2013-11-28 22:59:00,0.1,-4.3,30.53,NW,312,0.0,0.0,81,0.00,,,0.00,Wunderground v.1.15,2013-11-29 04:59:00,
2013-11-28 23:01:00,0.1,-4.3,30.53,NW,312,0.0,0.0,81,0.00,,,0.00,Wunderground v.1.15,2013-11-29 05:01:00,
2013-11-28 23:02:00,0.1,-4.3,30.53,NW,312,0.0,0.0,81,0.00,,,0.00,Wunderground v.1.15,2013-11-29 05:02:00,
2013-11-28 23:07:00,0.1,-4.3,30.53,NW,312,0.0,0.0,81,0.00,,,0.00,Wunderground v.1.15,2013-11-29 05:07:00,
2013-11-28 23:12:00,0.0,-4.4,30.53,NW,311,0.0,0.0,81,0.00,,,0.00,Wunderground v.1.15,2013-11-29 05:12:00,
2013-11-28 23:17:00,0.1,-4.3,30.54,NW,312,0.0,0.0,81,0.00,,,0.00,Wunderground v.1.15,2013-11-29 05:17:00,
2013-11-28 23:23:00,0.2,-4.0,30.54,NW,311,0.0,0.0,82,0.00,,,0.00,Wunderground v.1.15,2013-11-29 05:23:00,
2013-11-28 23:28:00,0.5,-3.7,30.54,NW,311,0.0,0.0,82,0.00,,,0.00,Wunderground v.1.15,2013-11-29 05:28:00,
2013-11-28 23:33:00,0.6,-3.6,30.54,NW,312,0.0,0.0,82,0.00,,,0.00,Wunderground v.1.15,2013-11-29 05:33:00,
2013-11-28 23:38:00,0.6,-3.6,30.54,NW,311,0.0,0.0,82,0.00,,,0.00,Wunderground v.1.15,2013-11-29 05:38:00,
2013-11-28 23:43:00,0.5,-4.0,30.55,NW,312,0.0,0.0,81,0.00,,,0.00,Wunderground v.1.15,2013-11-29 05:43:00,
2013-11-28 23:48:00,0.5,-3.7,30.55,NW,312,0.0,0.0,82,0.00,,,0.00,Wunderground v.1.15,2013-11-29 05:48:00,
2013-11-28 23:53:00,1.0,-3.2,30.55,NW,311,0.0,0.0,82,0.00,,,0.00,Wunderground v.1.15,2013-11-29 05:53:00,
2013-11-28 23:58:00,1.1,-3.1,30.55,NW,312,0.0,0.0,82,0.00,,,0.00,Wunderground v.1.15,2013-11-29 05:58:00,